createdAt,value
2018-08-17T00:01:53.904Z,5.10
2018-08-17T00:04:21.135Z,5.27
2018-08-17T00:06:48.400Z,4.73
2018-08-17T00:09:15.575Z,4.97
2018-08-17T00:11:42.758Z,4.80
2018-08-17T00:14:09.909Z,5.00
2018-08-17T00:16:37.466Z,4.63
2018-08-17T00:19:04.763Z,4.70
2018-08-17T00:21:31.983Z,4.90
2018-08-17T00:23:59.131Z,4.67
2018-08-17T00:26:26.355Z,4.83
2018-08-17T00:28:53.571Z,5.00
2018-08-17T00:31:20.892Z,5.00
2018-08-17T00:33:48.199Z,5.03
2018-08-17T00:36:15.314Z,5.10
2018-08-17T00:38:42.531Z,5.00
2018-08-17T00:41:09.773Z,4.77
2018-08-17T00:43:37.034Z,4.70
2018-08-17T00:46:04.227Z,4.90
2018-08-17T00:48:31.370Z,4.50
2018-08-17T00:50:58.499Z,4.83
2018-08-17T00:53:25.676Z,4.57
2018-08-17T00:55:52.938Z,5.30
2018-08-17T00:58:20.087Z,5.10
2018-08-17T01:00:47.238Z,4.50
2018-08-17T01:03:14.411Z,4.93
2018-08-17T01:05:41.578Z,4.30
2018-08-17T01:08:08.860Z,4.20
2018-08-17T01:10:36.116Z,4.50
2018-08-17T01:13:07.859Z,4.83
2018-08-17T01:15:35.090Z,4.37
2018-08-17T01:18:02.403Z,4.50
2018-08-17T01:20:29.637Z,4.83
2018-08-17T01:22:56.775Z,4.13
2018-08-17T01:25:23.946Z,4.60
2018-08-17T01:27:51.077Z,4.13
2018-08-17T01:30:18.264Z,4.40
2018-08-17T01:32:45.527Z,4.53
2018-08-17T01:35:12.651Z,4.30
2018-08-17T01:37:39.744Z,4.00
2018-08-17T01:40:06.922Z,4.43
2018-08-17T01:42:34.095Z,4.30
2018-08-17T01:45:01.334Z,4.57
2018-08-17T01:47:28.530Z,4.00
2018-08-17T01:49:55.660Z,4.20
2018-08-17T01:52:22.824Z,4.57
2018-08-17T01:54:50.052Z,4.47
2018-08-17T01:57:17.291Z,4.53
2018-08-17T01:59:44.420Z,4.40
2018-08-17T02:02:11.588Z,4.33
2018-08-17T02:04:38.733Z,4.63
2018-08-17T02:07:05.950Z,4.43
2018-08-17T02:09:33.201Z,3.83
2018-08-17T02:12:00.309Z,4.53
2018-08-17T02:14:27.543Z,4.63
2018-08-17T02:16:54.688Z,4.10
2018-08-17T02:19:21.905Z,4.57
2018-08-17T02:21:49.104Z,3.73
2018-08-17T02:24:16.264Z,4.20
2018-08-17T02:26:43.419Z,4.30
2018-08-17T02:29:10.555Z,4.50
2018-08-17T02:31:37.831Z,4.50
2018-08-17T02:34:05.071Z,4.50
2018-08-17T02:36:32.208Z,4.70
2018-08-17T02:38:59.377Z,4.30
2018-08-17T02:41:26.529Z,3.97
2018-08-17T02:43:54.777Z,4.23
2018-08-17T02:46:22.053Z,4.60
2018-08-17T02:48:49.192Z,4.00
2018-08-17T02:51:16.330Z,4.40
2018-08-17T02:53:43.502Z,4.43
2018-08-17T02:56:10.669Z,4.50
2018-08-17T02:58:37.866Z,4.90
2018-08-17T03:01:05.075Z,4.40
2018-08-17T03:03:32.194Z,4.67
2018-08-17T03:05:59.368Z,4.40
2018-08-17T03:08:26.568Z,4.27
2018-08-17T03:10:53.794Z,4.70
2018-08-17T03:13:23.047Z,4.80
2018-08-17T03:15:50.194Z,4.40
2018-08-17T03:18:17.309Z,4.27
2018-08-17T03:20:44.493Z,4.23
2018-08-17T03:23:11.810Z,4.23
2018-08-17T03:25:38.933Z,4.50
2018-08-17T03:28:06.356Z,4.57
2018-08-17T03:30:33.532Z,4.03
2018-08-17T03:33:00.687Z,4.47
2018-08-17T03:35:27.906Z,4.60
2018-08-17T03:37:55.063Z,4.43
2018-08-17T03:40:22.175Z,4.57
2018-08-17T03:42:49.604Z,4.53
2018-08-17T03:45:16.833Z,4.10
2018-08-17T03:47:44.026Z,4.73
2018-08-17T03:50:11.133Z,4.53
2018-08-17T03:52:38.292Z,4.57
2018-08-17T03:55:05.441Z,4.40
2018-08-17T03:57:32.636Z,4.40
2018-08-17T03:59:59.973Z,4.77
2018-08-17T04:02:27.104Z,4.53
2018-08-17T04:04:54.231Z,4.53
2018-08-17T04:07:21.441Z,4.30
2018-08-17T04:09:48.636Z,4.47
2018-08-17T04:12:15.838Z,4.53
2018-08-17T04:14:42.984Z,4.20
2018-08-17T04:17:14.902Z,4.70
2018-08-17T04:19:42.067Z,4.63
2018-08-17T04:22:09.291Z,4.80
2018-08-17T04:24:36.509Z,4.43
2018-08-17T04:27:03.728Z,4.80
2018-08-17T04:29:30.899Z,4.50
2018-08-17T04:31:58.018Z,4.83
2018-08-17T04:34:25.223Z,4.73
2018-08-17T04:36:52.508Z,4.53
2018-08-17T04:39:19.642Z,4.07
2018-08-17T04:41:46.848Z,4.47
2018-08-17T04:44:13.983Z,4.80
2018-08-17T04:46:41.200Z,4.40
2018-08-17T04:49:19.065Z,4.20
2018-08-17T04:51:46.249Z,4.10
2018-08-17T04:54:13.396Z,3.97
2018-08-17T04:56:40.635Z,4.10
2018-08-17T04:59:07.949Z,4.60
2018-08-17T05:01:35.192Z,3.80
2018-08-17T05:04:03.555Z,4.47
2018-08-17T05:06:30.755Z,4.20
2018-08-17T05:08:58.235Z,4.80
2018-08-17T05:11:25.626Z,4.10
2018-08-17T05:13:52.744Z,4.70
2018-08-17T05:16:20.524Z,4.33
2018-08-17T05:18:48.257Z,4.50
2018-08-17T05:21:15.447Z,4.43
2018-08-17T05:23:43.202Z,4.10
2018-08-17T05:26:11.277Z,4.57
2018-08-17T05:28:38.403Z,3.83
2018-08-17T05:31:05.679Z,4.37
2018-08-17T05:33:32.945Z,4.03
2018-08-17T05:36:00.383Z,4.00
2018-08-17T05:38:28.178Z,4.20
2018-08-17T05:40:55.385Z,4.23
2018-08-17T05:43:30.223Z,4.53
2018-08-17T05:45:57.548Z,4.20
2018-08-17T05:48:24.770Z,4.20
2018-08-17T05:50:51.910Z,4.77
2018-08-17T05:53:19.092Z,4.33
2018-08-17T05:55:46.256Z,3.93
2018-08-17T05:58:13.444Z,4.23
2018-08-17T06:00:40.708Z,4.30
2018-08-17T06:03:07.852Z,3.93
2018-08-17T06:05:35.007Z,4.30
2018-08-17T06:08:02.230Z,4.07
2018-08-17T06:10:29.427Z,3.90
2018-08-17T06:12:56.676Z,3.80
2018-08-17T06:15:25.935Z,3.90
2018-08-17T06:17:53.101Z,4.00
2018-08-17T06:20:20.232Z,4.03
2018-08-17T06:22:47.471Z,3.63
2018-08-17T06:25:14.752Z,4.20
2018-08-17T06:27:42.336Z,3.60
2018-08-17T06:30:12.295Z,3.80
2018-08-17T06:32:39.470Z,3.80
2018-08-17T06:35:08.192Z,3.80
2018-08-17T06:37:36.924Z,3.60
2018-08-17T06:40:04.472Z,3.60
2018-08-17T06:42:32.384Z,3.70
2018-08-17T06:44:59.584Z,3.97
2018-08-17T06:47:26.816Z,3.87
2018-08-17T06:49:54.101Z,3.70
2018-08-17T06:52:21.275Z,3.97
2018-08-17T06:54:48.680Z,4.10
2018-08-17T06:57:15.946Z,3.60
2018-08-17T06:59:43.220Z,3.70
2018-08-17T07:02:10.447Z,4.00
2018-08-17T07:04:37.753Z,4.10
2018-08-17T07:07:04.992Z,3.20
2018-08-17T07:09:33.145Z,4.00
2018-08-17T07:12:00.386Z,3.90
2018-08-17T07:14:27.623Z,3.93
2018-08-17T07:16:54.771Z,4.27
2018-08-17T07:19:22.004Z,4.00
2018-08-17T07:21:51.292Z,3.90
2018-08-17T07:24:18.498Z,3.80
2018-08-17T07:26:45.723Z,3.87
2018-08-17T07:29:12.943Z,3.80
2018-08-17T07:31:40.092Z,3.70
2018-08-17T07:34:07.308Z,3.53
2018-08-17T07:36:34.562Z,3.50
2018-08-17T07:39:01.744Z,3.30
2018-08-17T07:41:28.876Z,3.40
2018-08-17T07:43:56.176Z,3.23
2018-08-17T07:46:23.456Z,3.60
2018-08-17T07:48:50.655Z,3.33
2018-08-17T07:51:17.908Z,3.20
2018-08-17T07:53:45.044Z,3.10
2018-08-17T07:56:12.305Z,3.40
2018-08-17T07:58:39.491Z,3.33
2018-08-17T08:01:06.831Z,3.20
2018-08-17T08:03:34.007Z,3.50
2018-08-17T08:06:01.218Z,3.60
2018-08-17T08:08:28.344Z,3.17
2018-08-17T08:10:55.913Z,3.10
2018-08-17T08:13:23.139Z,3.70
2018-08-17T08:15:50.357Z,3.60
2018-08-17T08:18:17.509Z,3.30
2018-08-17T08:20:45.618Z,3.67
2018-08-17T08:23:20.170Z,3.17
2018-08-17T08:25:47.454Z,3.80
2018-08-17T08:28:14.674Z,3.30
2018-08-17T08:30:41.873Z,3.20
2018-08-17T08:33:09.146Z,3.50
2018-08-17T08:35:36.329Z,2.90
2018-08-17T08:38:03.523Z,3.13
2018-08-17T08:40:30.789Z,3.57
2018-08-17T08:42:57.958Z,3.67
2018-08-17T08:45:25.149Z,2.80
2018-08-17T08:47:52.347Z,3.40
2018-08-17T08:50:19.604Z,3.30
2018-08-17T08:52:46.827Z,2.97
2018-08-17T08:55:14.016Z,3.20
2018-08-17T08:57:41.135Z,3.33
2018-08-17T09:00:10.782Z,3.40
2018-08-17T09:02:38.447Z,3.33
2018-08-17T09:05:05.848Z,3.30
2018-08-17T09:07:33.031Z,3.20
2018-08-17T09:10:00.299Z,3.20
2018-08-17T09:12:27.451Z,3.10
2018-08-17T09:15:00.193Z,3.20
2018-08-17T09:17:27.498Z,3.17
2018-08-17T09:19:54.651Z,3.50
2018-08-17T09:22:21.847Z,3.30
2018-08-17T09:24:48.973Z,3.73
2018-08-17T09:27:16.225Z,3.33
2018-08-17T09:29:43.459Z,3.50
2018-08-17T09:32:10.616Z,3.30
2018-08-17T09:34:38.050Z,3.37
2018-08-17T09:37:05.352Z,3.50
2018-08-17T09:39:32.611Z,3.33
2018-08-17T09:41:59.842Z,3.13
2018-08-17T09:44:27.986Z,3.00
2018-08-17T09:46:55.536Z,3.33
2018-08-17T09:49:22.804Z,3.10
2018-08-17T09:51:50.160Z,3.30
2018-08-17T09:54:17.483Z,3.20
2018-08-17T09:56:44.631Z,3.10
2018-08-17T09:59:12.219Z,3.40
2018-08-17T10:01:45.148Z,3.37
2018-08-17T10:04:19.029Z,3.20
2018-08-17T10:06:52.136Z,3.07
2018-08-17T10:09:24.013Z,2.80
2018-08-17T10:11:51.841Z,3.15
2018-08-17T10:14:19.613Z,2.97
2018-08-17T10:16:47.179Z,3.10
2018-08-17T10:19:14.389Z,3.00
2018-08-17T10:21:47.816Z,3.10
2018-08-17T10:24:14.759Z,3.20
2018-08-17T10:26:43.500Z,3.10
2018-08-17T10:29:10.744Z,3.00
2018-08-17T10:31:37.910Z,2.90
2018-08-17T10:34:05.209Z,3.35
2018-08-17T10:36:32.355Z,2.90
2018-08-17T10:38:59.667Z,3.08
2018-08-17T10:41:27.098Z,3.83
2018-08-17T10:43:54.299Z,3.22
2018-08-17T10:46:21.472Z,3.05
2018-08-17T10:48:48.647Z,3.12
2018-08-17T10:51:15.850Z,3.30
2018-08-17T10:53:45.145Z,3.12
2018-08-17T10:56:12.291Z,3.20
2018-08-17T10:58:39.470Z,3.12
2018-08-17T11:01:06.592Z,3.15
2018-08-17T11:03:34.141Z,3.05
2018-08-17T11:06:01.460Z,3.55
2018-08-17T11:08:28.611Z,3.25
2018-08-17T11:10:56.013Z,3.33
2018-08-17T11:13:23.168Z,3.20
2018-08-17T11:15:50.383Z,3.02
2018-08-17T11:18:18.046Z,3.10
2018-08-17T11:20:45.239Z,3.37
2018-08-17T11:23:12.372Z,3.15
2018-08-17T11:25:39.463Z,2.98
2018-08-17T11:28:06.682Z,3.35
2018-08-17T11:30:33.884Z,3.02
2018-08-17T11:33:01.034Z,3.00
2018-08-17T11:35:28.203Z,3.05
2018-08-17T11:37:55.384Z,2.87
2018-08-17T11:40:22.583Z,2.95
2018-08-17T11:42:50.601Z,2.83
2018-08-17T11:45:22.247Z,3.02
2018-08-17T11:47:49.730Z,2.92
2018-08-17T11:50:18.612Z,2.80
2018-08-17T11:52:52.680Z,3.15
2018-08-17T11:55:21.206Z,3.00
2018-08-17T11:57:48.544Z,2.75
2018-08-17T12:00:18.728Z,3.10
2018-08-17T12:02:47.147Z,2.98
2018-08-17T12:05:14.296Z,3.10
2018-08-17T12:07:42.689Z,3.27
2018-08-17T12:10:09.839Z,3.20
2018-08-17T12:12:38.291Z,3.08
2018-08-17T12:15:06.918Z,3.10
2018-08-17T12:17:34.172Z,3.22
2018-08-17T12:20:01.537Z,3.30
2018-08-17T12:22:29.411Z,3.35
2018-08-17T12:24:56.541Z,3.05
2018-08-17T12:27:23.745Z,3.47
2018-08-17T12:29:50.940Z,4.00
2018-08-17T12:32:18.139Z,3.40
2018-08-17T12:34:45.255Z,3.35
2018-08-17T12:37:12.437Z,3.75
2018-08-17T12:39:39.632Z,3.42
2018-08-17T12:42:06.848Z,3.58
2018-08-17T12:44:34.091Z,3.77
2018-08-17T12:47:01.301Z,3.58
2018-08-17T12:49:28.450Z,3.30
2018-08-17T12:51:55.852Z,3.50
2018-08-17T12:54:28.691Z,3.22
2018-08-17T12:56:56.064Z,3.42
2018-08-17T12:59:23.230Z,3.35
2018-08-17T13:01:50.379Z,3.50
2018-08-17T13:04:17.598Z,3.45
2018-08-17T13:06:44.731Z,3.40
2018-08-17T13:09:12.022Z,3.83
2018-08-17T13:11:43.284Z,3.30
2018-08-17T13:14:11.884Z,3.10
2018-08-17T13:16:40.169Z,3.47
2018-08-17T13:19:07.661Z,3.67
2018-08-17T13:21:35.017Z,3.08
2018-08-17T13:24:02.145Z,3.42
2018-08-17T13:26:29.387Z,3.60
2018-08-17T13:28:56.611Z,3.45
2018-08-17T13:31:23.702Z,3.50
2018-08-17T13:33:50.929Z,3.87
2018-08-17T13:36:18.075Z,3.50
2018-08-17T13:38:45.209Z,3.60
2018-08-17T13:41:12.460Z,3.58
2018-08-17T13:43:39.627Z,3.40
2018-08-17T13:46:06.853Z,3.57
2018-08-17T13:48:34.060Z,3.87
2018-08-17T13:51:01.245Z,3.40
2018-08-17T13:53:28.412Z,3.30
2018-08-17T13:55:55.602Z,3.20
2018-08-17T13:58:22.908Z,3.70
2018-08-17T14:00:50.044Z,3.60
2018-08-17T14:03:17.223Z,3.10
2018-08-17T14:05:44.441Z,3.77
2018-08-17T14:08:11.616Z,3.77
2018-08-17T14:10:38.848Z,3.50
2018-08-17T14:13:05.996Z,3.70
2018-08-17T14:15:33.145Z,3.50
2018-08-17T14:18:00.412Z,3.50
2018-08-17T14:20:27.539Z,3.80
2018-08-17T14:22:54.744Z,4.20
2018-08-17T14:25:22.547Z,3.72
2018-08-17T14:27:49.656Z,3.40
2018-08-17T14:30:17.703Z,3.72
2018-08-17T14:32:44.951Z,3.60
2018-08-17T14:35:12.556Z,3.20
2018-08-17T14:37:39.707Z,3.50
2018-08-17T14:40:07.553Z,3.37
2018-08-17T14:42:34.732Z,3.35
2018-08-17T14:45:01.865Z,3.70
2018-08-17T14:47:29.119Z,3.65
2018-08-17T14:49:56.258Z,3.50
2018-08-17T14:52:23.397Z,3.30
2018-08-17T14:54:50.627Z,3.40
2018-08-17T14:57:17.751Z,3.40
2018-08-17T14:59:44.961Z,3.53
2018-08-17T15:02:12.137Z,3.98
2018-08-17T15:04:39.267Z,3.45
2018-08-17T15:07:06.441Z,4.47
2018-08-17T15:09:33.595Z,3.60
2018-08-17T15:12:00.820Z,4.03
2018-08-17T15:14:27.947Z,3.30
2018-08-17T15:16:55.116Z,3.40
2018-08-17T15:19:22.372Z,3.03
2018-08-17T15:21:49.575Z,3.72
2018-08-17T15:24:16.805Z,3.15
2018-08-17T15:26:44.029Z,3.70
2018-08-17T15:29:11.170Z,3.20
2018-08-17T15:31:38.427Z,3.30
2018-08-17T15:34:05.592Z,3.43
2018-08-17T15:36:32.879Z,3.50
2018-08-17T15:39:00.056Z,3.25
2018-08-17T15:41:27.293Z,3.17
2018-08-17T15:43:54.466Z,3.70
2018-08-17T15:46:21.677Z,3.30
2018-08-17T15:48:52.553Z,3.85
2018-08-17T15:51:19.775Z,3.87
2018-08-17T15:53:46.934Z,3.70
2018-08-17T15:56:14.151Z,3.80
2018-08-17T15:58:41.427Z,3.53
2018-08-17T16:01:08.912Z,4.53
2018-08-17T16:03:35.965Z,3.90
2018-08-17T16:06:03.123Z,4.00
2018-08-17T16:08:30.423Z,4.10
2018-08-17T16:10:57.492Z,4.10
2018-08-17T16:13:25.573Z,4.57
2018-08-17T16:15:52.840Z,4.40
2018-08-17T16:18:19.960Z,3.80
2018-08-17T16:20:47.167Z,4.60
2018-08-17T16:23:14.375Z,4.03
2018-08-17T16:25:41.567Z,3.90
2018-08-17T16:28:08.764Z,4.50
2018-08-17T16:30:35.932Z,4.63
2018-08-17T16:33:03.187Z,4.00
2018-08-17T16:35:30.357Z,4.43
2018-08-17T16:37:57.761Z,4.67
2018-08-17T16:40:24.935Z,4.67
2018-08-17T16:42:52.427Z,4.60
2018-08-17T16:45:19.674Z,4.90
2018-08-17T16:47:46.806Z,4.73
2018-08-17T16:50:14.019Z,4.60
2018-08-17T16:52:41.217Z,5.60
2018-08-17T16:55:08.446Z,5.00
2018-08-17T16:57:35.680Z,5.40
2018-08-17T17:00:03.531Z,5.50
2018-08-17T17:02:30.705Z,5.43
2018-08-17T17:04:57.859Z,5.50
2018-08-17T17:07:28.349Z,5.50
2018-08-17T17:09:55.623Z,5.87
2018-08-17T17:12:22.760Z,6.00
2018-08-17T17:14:50.047Z,5.80
2018-08-17T17:17:17.152Z,5.47
2018-08-17T17:19:44.297Z,6.00
2018-08-17T17:22:11.518Z,5.83
2018-08-17T17:24:38.915Z,5.77
2018-08-17T17:27:06.288Z,5.70
2018-08-17T17:29:34.784Z,5.33
2018-08-17T17:32:01.947Z,5.80
2018-08-17T17:34:29.265Z,6.07
2018-08-17T17:36:56.832Z,6.40
2018-08-17T17:39:24.108Z,5.70
2018-08-17T17:41:51.302Z,7.37
2018-08-17T17:44:18.455Z,5.90
2018-08-17T17:46:45.652Z,5.40
2018-08-17T17:49:12.788Z,5.73
2018-08-17T17:51:40.044Z,5.37
2018-08-17T17:54:07.248Z,5.47
2018-08-17T17:56:34.458Z,6.10
2018-08-17T17:59:06.580Z,5.40
2018-08-17T18:01:33.753Z,5.90
2018-08-17T18:04:00.932Z,5.77
2018-08-17T18:06:28.091Z,5.60
2018-08-17T18:08:57.856Z,6.13
2018-08-17T18:11:25.054Z,5.60
2018-08-17T18:13:52.212Z,5.73
2018-08-17T18:16:19.416Z,5.63
2018-08-17T18:18:46.526Z,5.70
2018-08-17T18:21:13.715Z,5.50
2018-08-17T18:23:40.917Z,5.90
2018-08-17T18:26:10.100Z,5.50
2018-08-17T18:28:37.360Z,5.37
2018-08-17T18:31:04.494Z,5.07
2018-08-17T18:33:31.721Z,5.40
2018-08-17T18:35:58.973Z,5.67
2018-08-17T18:38:26.097Z,5.33
2018-08-17T18:40:53.384Z,4.60
2018-08-17T18:43:20.544Z,5.20
2018-08-17T18:45:47.665Z,5.33
2018-08-17T18:48:14.884Z,5.30
2018-08-17T18:50:42.072Z,5.37
2018-08-17T18:53:09.300Z,5.13
2018-08-17T18:55:36.470Z,5.33
2018-08-17T18:58:03.646Z,5.13
2018-08-17T19:00:30.968Z,4.90
2018-08-17T19:02:58.507Z,4.60
2018-08-17T19:05:25.751Z,4.90
2018-08-17T19:07:52.886Z,4.93
2018-08-17T19:10:20.008Z,4.80
2018-08-17T19:12:47.296Z,4.60
2018-08-17T19:15:14.469Z,4.90
2018-08-17T19:17:41.860Z,5.10
2018-08-17T19:20:10.624Z,4.37
2018-08-17T19:22:39.745Z,4.50
2018-08-17T19:25:08.099Z,4.80
2018-08-17T19:27:37.912Z,4.20
2018-08-17T19:30:21.170Z,4.03
2018-08-17T19:32:48.423Z,3.90
2018-08-17T19:35:15.872Z,4.20
2018-08-17T19:37:43.085Z,4.53
2018-08-17T19:40:10.391Z,3.80
2018-08-17T19:42:37.538Z,4.20
2018-08-17T19:45:04.715Z,4.70
2018-08-17T19:47:32.001Z,4.33
2018-08-17T19:49:59.143Z,3.83
2018-08-17T19:52:26.350Z,3.53
2018-08-17T19:54:53.525Z,4.10
2018-08-17T19:57:20.653Z,4.10
2018-08-17T19:59:47.928Z,3.97
2018-08-17T20:02:15.091Z,4.13
2018-08-17T20:04:42.436Z,3.63
2018-08-17T20:07:09.632Z,4.50
2018-08-17T20:09:36.935Z,4.07
2018-08-17T20:12:04.211Z,4.17
2018-08-17T20:14:31.656Z,4.37
2018-08-17T20:16:58.974Z,3.80
2018-08-17T20:19:34.605Z,3.73
2018-08-17T20:22:02.009Z,3.40
2018-08-17T20:24:29.251Z,3.90
2018-08-17T20:26:57.476Z,3.83
2018-08-17T20:29:24.796Z,3.70
2018-08-17T20:31:51.943Z,3.90
2018-08-17T20:34:19.093Z,3.83
2018-08-17T20:36:46.399Z,4.07
2018-08-17T20:39:13.626Z,3.50
2018-08-17T20:41:45.324Z,3.73
2018-08-17T20:44:12.499Z,3.60
2018-08-17T20:46:42.439Z,3.60
2018-08-17T20:49:11.766Z,3.80
2018-08-17T20:51:44.736Z,3.87
2018-08-17T20:54:11.904Z,3.27
2018-08-17T20:56:39.048Z,3.50
2018-08-17T20:59:06.180Z,3.27
2018-08-17T21:01:33.421Z,3.13
2018-08-17T21:04:00.591Z,3.47
2018-08-17T21:06:27.784Z,3.60
2018-08-17T21:08:54.980Z,3.60
2018-08-17T21:11:22.119Z,3.43
2018-08-17T21:13:49.412Z,3.37
2018-08-17T21:16:16.746Z,3.80
2018-08-17T21:18:43.884Z,3.37
2018-08-17T21:21:11.012Z,4.00
2018-08-17T21:23:38.199Z,3.60
2018-08-17T21:26:05.444Z,3.47
2018-08-17T21:28:32.669Z,3.33
2018-08-17T21:30:59.934Z,3.63
2018-08-17T21:33:27.065Z,3.40
2018-08-17T21:35:54.240Z,3.27
2018-08-17T21:38:21.574Z,3.40
2018-08-17T21:40:48.832Z,3.67
2018-08-17T21:43:16.700Z,3.70
2018-08-17T21:45:44.667Z,3.20
2018-08-17T21:48:17.556Z,3.50
2018-08-17T21:50:44.793Z,3.73
2018-08-17T21:53:12.033Z,3.53
2018-08-17T21:55:39.174Z,3.23
2018-08-17T21:58:06.356Z,3.43
2018-08-17T22:00:33.711Z,3.70
2018-08-17T22:03:00.975Z,3.40
2018-08-17T22:05:34.916Z,3.40
2018-08-17T22:08:02.246Z,3.30
2018-08-17T22:10:29.933Z,3.30
2018-08-17T22:12:57.095Z,3.20
2018-08-17T22:15:25.679Z,3.00
2018-08-17T22:17:52.900Z,3.10
2018-08-17T22:20:20.126Z,3.07
2018-08-17T22:22:47.248Z,3.73
2018-08-17T22:25:16.782Z,3.10
2018-08-17T22:27:44.076Z,2.93
2018-08-17T22:30:21.955Z,3.00
2018-08-17T22:32:49.228Z,3.00
2018-08-17T22:35:16.564Z,3.00
2018-08-17T22:37:43.646Z,2.93
2018-08-17T22:40:10.915Z,3.20
2018-08-17T22:42:38.140Z,3.20
2018-08-17T22:45:05.703Z,2.70
2018-08-17T22:47:32.860Z,2.93
2018-08-17T22:50:00.803Z,3.30
2018-08-17T22:52:31.547Z,3.20
2018-08-17T22:54:59.887Z,3.07
2018-08-17T22:57:27.711Z,3.07
2018-08-17T23:00:11.285Z,3.17
2018-08-17T23:02:39.440Z,2.97
2018-08-17T23:05:08.668Z,2.97
2018-08-17T23:07:35.937Z,2.57
2018-08-17T23:10:03.967Z,2.80
2018-08-17T23:12:31.162Z,2.90
2018-08-17T23:14:58.460Z,3.10
2018-08-17T23:17:25.580Z,3.00
2018-08-17T23:19:52.698Z,2.63
2018-08-17T23:22:19.867Z,2.83
2018-08-17T23:24:47.177Z,2.70
2018-08-17T23:27:14.350Z,3.00
2018-08-17T23:29:41.728Z,2.83
2018-08-17T23:32:08.877Z,2.90
2018-08-17T23:34:36.006Z,3.10
2018-08-17T23:37:03.519Z,3.10
2018-08-17T23:39:30.744Z,2.80
2018-08-17T23:41:57.879Z,2.70
2018-08-17T23:44:25.037Z,2.57
2018-08-17T23:46:52.184Z,2.90
2018-08-17T23:49:19.401Z,2.67
2018-08-17T23:51:46.689Z,2.70
2018-08-17T23:54:13.817Z,2.53
2018-08-17T23:56:40.927Z,2.70
2018-08-17T23:59:08.088Z,2.57
